createdAt,value
2017-07-01T00:01:18.711Z,8
2017-07-01T00:02:18.390Z,8
2017-07-01T00:03:18.364Z,8
2017-07-01T00:04:18.271Z,8
2017-07-01T00:05:17.976Z,8
2017-07-01T00:06:17.965Z,8
2017-07-01T00:07:18.078Z,8
2017-07-01T00:08:18.494Z,8
2017-07-01T00:09:17.953Z,8
2017-07-01T00:10:17.715Z,8
2017-07-01T00:11:18.087Z,8
2017-07-01T00:12:17.823Z,8
2017-07-01T00:13:17.375Z,8
2017-07-01T00:14:17.645Z,8
2017-07-01T00:15:18.338Z,8
2017-07-01T00:16:17.292Z,8
2017-07-01T00:17:17.457Z,8
2017-07-01T00:18:17.393Z,8
2017-07-01T00:19:17.017Z,8
2017-07-01T00:20:17.426Z,8
2017-07-01T00:21:16.880Z,8
2017-07-01T00:22:17.146Z,8
2017-07-01T00:23:17.085Z,8
2017-07-01T00:24:17.027Z,8
2017-07-01T00:25:17.213Z,8
2017-07-01T00:26:16.899Z,8
2017-07-01T00:27:16.993Z,8
2017-07-01T00:28:16.782Z,8
2017-07-01T00:29:16.716Z,8
2017-07-01T00:30:16.803Z,8
2017-07-01T00:31:16.599Z,8
2017-07-01T00:32:16.540Z,8
2017-07-01T00:33:16.466Z,8
2017-07-01T00:34:16.406Z,8
2017-07-01T00:35:16.313Z,8
2017-07-01T00:36:16.282Z,8
2017-07-01T00:37:16.573Z,8
2017-07-01T00:38:15.827Z,8
2017-07-01T00:39:15.767Z,8
2017-07-01T00:40:16.382Z,8
2017-07-01T00:41:15.975Z,8
2017-07-01T00:42:16.508Z,8
2017-07-01T00:43:15.843Z,8
2017-07-01T00:44:15.992Z,8
2017-07-01T00:45:15.972Z,8
2017-07-01T00:46:15.661Z,8
2017-07-01T00:47:14.942Z,8
2017-07-01T00:48:15.537Z,8
2017-07-01T00:49:15.475Z,8
2017-07-01T00:50:15.563Z,8
2017-07-01T00:51:15.351Z,8
2017-07-01T00:52:15.290Z,8
2017-07-01T00:53:15.232Z,8
2017-07-01T00:54:15.164Z,8
2017-07-01T00:55:15.399Z,8
2017-07-01T00:56:15.042Z,8
2017-07-01T00:57:14.976Z,8
2017-07-01T00:58:14.924Z,8
2017-07-01T00:59:14.857Z,8
2017-07-01T01:00:14.947Z,8
2017-07-01T01:01:14.732Z,8
2017-07-01T01:02:14.667Z,8
2017-07-01T01:03:14.609Z,8
2017-07-01T01:04:14.545Z,8
2017-07-01T01:05:14.739Z,8
2017-07-01T01:06:14.424Z,8
2017-07-01T01:07:14.358Z,8
2017-07-01T01:08:13.967Z,8
2017-07-01T01:09:14.237Z,8
2017-07-01T01:10:14.424Z,8
2017-07-01T01:11:14.112Z,8
2017-07-01T01:12:14.053Z,8
2017-07-01T01:13:13.987Z,8
2017-07-01T01:14:13.924Z,8
2017-07-01T01:15:13.866Z,8
2017-07-01T01:16:13.805Z,8
2017-07-01T01:17:13.938Z,8
2017-07-01T01:18:13.924Z,8
2017-07-01T01:19:13.613Z,8
2017-07-01T01:20:13.650Z,8
2017-07-01T01:21:13.489Z,8
2017-07-01T01:22:13.428Z,8
2017-07-01T01:23:13.365Z,8
2017-07-01T01:24:13.303Z,8
2017-07-01T01:25:13.942Z,8
2017-07-01T01:26:13.179Z,8
2017-07-01T01:27:13.116Z,4
2017-07-01T01:28:13.055Z,8
2017-07-01T01:29:12.665Z,8
2017-07-01T01:30:13.332Z,8
2017-07-01T01:31:12.867Z,8
2017-07-01T01:32:12.151Z,8
2017-07-01T01:33:12.095Z,8
2017-07-01T01:34:12.685Z,8
2017-07-01T01:35:13.023Z,8
2017-07-01T01:36:12.560Z,8
2017-07-01T01:37:12.498Z,8
2017-07-01T01:38:12.105Z,8
2017-07-01T01:39:12.372Z,8
2017-07-01T01:40:12.313Z,12
2017-07-01T01:41:12.254Z,12
2017-07-01T01:42:12.189Z,12
2017-07-01T01:43:12.129Z,12
2017-07-01T01:44:12.065Z,12
2017-07-01T01:45:12.157Z,12
2017-07-01T01:46:12.098Z,12
2017-07-01T01:47:11.554Z,12
2017-07-01T01:48:11.495Z,12
2017-07-01T01:49:11.754Z,12
2017-07-01T01:50:11.662Z,12
2017-07-01T01:51:11.929Z,12
2017-07-01T01:52:11.575Z,12
2017-07-01T01:53:11.506Z,12
2017-07-01T01:54:11.442Z,12
2017-07-01T01:55:11.684Z,12
2017-07-01T01:56:11.318Z,12
2017-07-01T01:57:10.930Z,12
2017-07-01T01:58:11.195Z,12
2017-07-01T01:59:10.808Z,12
2017-07-01T02:00:11.075Z,12
2017-07-01T02:01:11.211Z,12
2017-07-01T02:02:10.621Z,12
2017-07-01T02:03:10.884Z,12
2017-07-01T02:04:10.833Z,12
2017-07-01T02:05:10.768Z,12
2017-07-01T02:06:10.702Z,12
2017-07-01T02:07:10.359Z,12
2017-07-01T02:08:10.582Z,12
2017-07-01T02:09:10.521Z,12
2017-07-01T02:10:10.804Z,12
2017-07-01T02:11:10.394Z,12
2017-07-01T02:12:10.329Z,12
2017-07-01T02:13:10.268Z,12
2017-07-01T02:14:10.242Z,12
2017-07-01T02:15:10.297Z,12
2017-07-01T02:16:10.084Z,12
2017-07-01T02:17:10.020Z,12
2017-07-01T02:18:09.630Z,12
2017-07-01T02:19:09.895Z,12
2017-07-01T02:20:09.933Z,12
2017-07-01T02:21:09.781Z,12
2017-07-01T02:22:09.393Z,12
2017-07-01T02:23:09.649Z,12
2017-07-01T02:24:09.583Z,12
2017-07-01T02:25:09.725Z,12
2017-07-01T02:26:09.462Z,12
2017-07-01T02:27:09.402Z,12
2017-07-01T02:28:09.336Z,12
2017-07-01T02:29:09.278Z,12
2017-07-01T02:30:09.217Z,12
2017-07-01T02:31:09.030Z,12
2017-07-01T02:32:09.091Z,8
2017-07-01T02:33:09.027Z,12
2017-07-01T02:34:08.972Z,12
2017-07-01T02:35:08.905Z,12
2017-07-01T02:36:08.998Z,12
2017-07-01T02:37:08.835Z,12
2017-07-01T02:38:08.723Z,12
2017-07-01T02:39:08.714Z,12
2017-07-01T02:40:08.311Z,12
2017-07-01T02:41:08.632Z,12
2017-07-01T02:42:08.142Z,12
2017-07-01T02:43:08.451Z,12
2017-07-01T02:44:08.353Z,12
2017-07-01T02:45:08.286Z,12
2017-07-01T02:46:08.226Z,12
2017-07-01T02:47:08.161Z,12
2017-07-01T02:48:07.773Z,12
2017-07-01T02:49:08.035Z,12
2017-07-01T02:50:07.977Z,12
2017-07-01T02:51:07.912Z,12
2017-07-01T02:52:07.851Z,8
2017-07-01T02:53:07.459Z,12
2017-07-01T02:54:07.403Z,12
2017-07-01T02:55:07.667Z,12
2017-07-01T02:56:07.601Z,8
2017-07-01T02:57:07.544Z,8
2017-07-01T02:58:07.482Z,8
2017-07-01T02:59:07.421Z,8
2017-07-01T03:00:07.357Z,8
2017-07-01T03:01:07.293Z,8
2017-07-01T03:02:07.230Z,8
2017-07-01T03:03:07.168Z,8
2017-07-01T03:04:07.114Z,12
2017-07-01T03:05:07.050Z,12
2017-07-01T03:06:06.982Z,12
2017-07-01T03:07:06.920Z,12
2017-07-01T03:08:06.860Z,12
2017-07-01T03:09:06.798Z,12
2017-07-01T03:10:06.882Z,12
2017-07-01T03:11:06.673Z,12
2017-07-01T03:12:06.285Z,8
2017-07-01T03:13:06.562Z,8
2017-07-01T03:14:06.485Z,8
2017-07-01T03:15:06.573Z,8
2017-07-01T03:16:06.360Z,12
2017-07-01T03:17:06.299Z,12
2017-07-01T03:18:06.236Z,12
2017-07-01T03:19:06.175Z,12
2017-07-01T03:20:05.459Z,12
2017-07-01T03:21:06.048Z,12
2017-07-01T03:22:05.994Z,12
2017-07-01T03:23:05.930Z,12
2017-07-01T03:24:05.866Z,12
2017-07-01T03:25:05.804Z,12
2017-07-01T03:26:05.741Z,12
2017-07-01T03:27:05.678Z,12
2017-07-01T03:28:05.620Z,12
2017-07-01T03:29:05.555Z,12
2017-07-01T03:30:05.496Z,12
2017-07-01T03:31:05.433Z,12
2017-07-01T03:32:05.369Z,12
2017-07-01T03:33:05.309Z,12
2017-07-01T03:34:05.245Z,12
2017-07-01T03:35:04.856Z,12
2017-07-01T03:36:05.372Z,8
2017-07-01T03:37:05.060Z,12
2017-07-01T03:38:05.002Z,12
2017-07-01T03:39:04.944Z,12
2017-07-01T03:40:04.980Z,12
2017-07-01T03:41:04.813Z,12
2017-07-01T03:42:04.754Z,12
2017-07-01T03:43:04.700Z,12
2017-07-01T03:44:04.627Z,12
2017-07-01T03:45:04.561Z,12
2017-07-01T03:46:04.501Z,12
2017-07-01T03:47:04.446Z,12
2017-07-01T03:48:04.377Z,12
2017-07-01T03:49:04.322Z,12
2017-07-01T03:50:04.254Z,12
2017-07-01T03:51:04.500Z,12
2017-07-01T03:52:04.140Z,12
2017-07-01T03:53:04.074Z,16
2017-07-01T03:54:04.018Z,16
2017-07-01T03:55:03.946Z,16
2017-07-01T03:56:04.036Z,16
2017-07-01T03:57:03.820Z,16
2017-07-01T03:58:03.768Z,16
2017-07-01T03:59:03.732Z,12
2017-07-01T04:00:03.637Z,12
2017-07-01T04:01:03.573Z,8
2017-07-01T04:02:03.511Z,8
2017-07-01T04:03:03.446Z,12
2017-07-01T04:04:03.388Z,12
2017-07-01T04:05:03.322Z,12
2017-07-01T04:06:03.261Z,12
2017-07-01T04:07:03.204Z,12
2017-07-01T04:08:03.147Z,12
2017-07-01T04:09:03.076Z,12
2017-07-01T04:10:03.016Z,12
2017-07-01T04:11:02.951Z,12
2017-07-01T04:12:03.189Z,12
2017-07-01T04:13:02.825Z,12
2017-07-01T04:14:02.762Z,12
2017-07-01T04:15:02.705Z,12
2017-07-01T04:16:02.646Z,12
2017-07-01T04:17:02.252Z,12
2017-07-01T04:18:02.517Z,8
2017-07-01T04:19:02.460Z,12
2017-07-01T04:20:02.393Z,12
2017-07-01T04:21:02.330Z,12
2017-07-01T04:22:02.280Z,12
2017-07-01T04:23:02.257Z,8
2017-07-01T04:24:02.152Z,8
2017-07-01T04:25:02.083Z,12
2017-07-01T04:26:03.224Z,12
2017-07-01T04:27:01.961Z,12
2017-07-01T04:28:01.899Z,12
2017-07-01T04:29:01.848Z,8
2017-07-01T04:30:01.778Z,8
2017-07-01T04:31:01.711Z,8
2017-07-01T04:32:01.650Z,12
2017-07-01T04:33:01.606Z,12
2017-07-01T04:34:01.530Z,12
2017-07-01T04:35:01.472Z,8
2017-07-01T04:36:01.416Z,12
2017-07-01T04:37:01.011Z,12
2017-07-01T04:38:01.282Z,12
2017-07-01T04:39:01.216Z,12
2017-07-01T04:40:01.151Z,12
2017-07-01T04:41:00.763Z,12
2017-07-01T04:42:01.028Z,12
2017-07-01T04:43:00.968Z,12
2017-07-01T04:44:00.908Z,12
2017-07-01T04:45:00.846Z,12
2017-07-01T04:46:00.779Z,12
2017-07-01T04:47:00.718Z,8
2017-07-01T04:48:00.759Z,8
2017-07-01T04:49:00.598Z,8
2017-07-01T04:50:00.539Z,12
2017-07-01T04:51:00.469Z,12
2017-07-01T04:52:00.412Z,12
2017-07-01T04:53:00.020Z,12
2017-07-01T04:54:00.288Z,16
2017-07-01T04:55:00.227Z,16
2017-07-01T04:56:00.160Z,16
2017-07-01T04:57:00.101Z,12
2017-07-01T04:58:00.042Z,16
2017-07-01T04:58:59.976Z,16
2017-07-01T04:59:59.917Z,16
2017-07-01T05:00:59.849Z,16
2017-07-01T05:01:59.788Z,16
2017-07-01T05:02:59.732Z,16
2017-07-01T05:03:59.777Z,16
2017-07-01T05:04:59.603Z,12
2017-07-01T05:05:59.214Z,12
2017-07-01T05:06:59.477Z,16
2017-07-01T05:07:59.415Z,16
2017-07-01T05:08:59.604Z,12
2017-07-01T05:09:59.293Z,12
2017-07-01T05:10:59.231Z,12
2017-07-01T05:11:59.169Z,8
2017-07-01T05:12:59.111Z,8
2017-07-01T05:13:59.052Z,8
2017-07-01T05:14:58.984Z,8
2017-07-01T05:15:58.922Z,12
2017-07-01T05:16:58.531Z,12
2017-07-01T05:17:58.792Z,12
2017-07-01T05:18:58.738Z,12
2017-07-01T05:19:58.671Z,12
2017-07-01T05:20:58.629Z,12
2017-07-01T05:21:58.549Z,12
2017-07-01T05:22:58.488Z,12
2017-07-01T05:23:58.095Z,12
2017-07-01T05:24:58.359Z,12
2017-07-01T05:25:58.298Z,12
2017-07-01T05:26:58.241Z,12
2017-07-01T05:27:58.174Z,12
2017-07-01T05:28:58.113Z,12
2017-07-01T05:29:58.153Z,12
2017-07-01T05:30:57.990Z,12
2017-07-01T05:31:57.929Z,12
2017-07-01T05:32:57.865Z,8
2017-07-01T05:33:57.802Z,12
2017-07-01T05:34:57.743Z,12
2017-07-01T05:35:57.683Z,12
2017-07-01T05:36:57.616Z,12
2017-07-01T05:37:57.232Z,12
2017-07-01T05:38:57.495Z,12
2017-07-01T05:39:57.429Z,16
2017-07-01T05:40:57.370Z,12
2017-07-01T05:41:57.310Z,12
2017-07-01T05:42:57.247Z,16
2017-07-01T05:43:57.183Z,12
2017-07-01T05:44:57.119Z,12
2017-07-01T05:45:57.062Z,16
2017-07-01T05:46:56.673Z,20
2017-07-01T05:47:56.935Z,16
2017-07-01T05:48:56.559Z,20
2017-07-01T05:49:56.484Z,20
2017-07-01T05:50:56.746Z,24
2017-07-01T05:51:56.686Z,24
2017-07-01T05:52:56.637Z,24
2017-07-01T05:53:56.561Z,28
2017-07-01T05:54:56.498Z,24
2017-07-01T05:55:56.787Z,20
2017-07-01T05:56:56.050Z,20
2017-07-01T05:57:56.321Z,20
2017-07-01T05:58:55.929Z,20
2017-07-01T05:59:55.860Z,20
2017-07-01T06:00:56.104Z,20
2017-07-01T06:01:56.071Z,16
2017-07-01T06:02:56.011Z,20
2017-07-01T06:03:55.945Z,20
2017-07-01T06:04:55.881Z,20
2017-07-01T06:05:55.957Z,24
2017-07-01T06:06:55.771Z,24
2017-07-01T06:07:55.698Z,24
2017-07-01T06:08:55.634Z,28
2017-07-01T06:09:55.243Z,28
2017-07-01T06:10:55.181Z,28
2017-07-01T06:11:55.118Z,28
2017-07-01T06:12:55.433Z,32
2017-07-01T06:13:55.523Z,40
2017-07-01T06:14:55.270Z,36
2017-07-01T06:15:55.199Z,40
2017-07-01T06:16:54.804Z,40
2017-07-01T06:17:55.077Z,40
2017-07-01T06:18:54.352Z,40
2017-07-01T06:19:54.951Z,40
2017-07-01T06:20:54.561Z,40
2017-07-01T06:21:54.601Z,40
2017-07-01T06:22:54.766Z,44
2017-07-01T06:23:54.705Z,44
2017-07-01T06:24:54.641Z,44
2017-07-01T06:25:54.501Z,44
2017-07-01T06:26:54.521Z,44
2017-07-01T06:27:54.455Z,44
2017-07-01T06:28:54.394Z,44
2017-07-01T06:29:54.331Z,44
2017-07-01T06:30:53.979Z,44
2017-07-01T06:31:54.208Z,44
2017-07-01T06:32:54.146Z,40
2017-07-01T06:33:54.081Z,40
2017-07-01T06:34:54.019Z,40
2017-07-01T06:35:54.065Z,40
2017-07-01T06:36:53.565Z,40
2017-07-01T06:37:53.837Z,44
2017-07-01T06:38:53.781Z,44
2017-07-01T06:39:53.711Z,44
2017-07-01T06:40:53.568Z,52
2017-07-01T06:41:53.590Z,52
2017-07-01T06:42:53.523Z,52
2017-07-01T06:43:53.466Z,52
2017-07-01T06:44:53.402Z,56
2017-07-01T06:45:53.440Z,56
2017-07-01T06:46:53.276Z,56
2017-07-01T06:47:53.212Z,56
2017-07-01T06:48:53.154Z,48
2017-07-01T06:49:53.089Z,44
2017-07-01T06:50:53.029Z,44
2017-07-01T06:51:52.963Z,40
2017-07-01T06:52:52.579Z,36
2017-07-01T06:53:52.845Z,36
2017-07-01T06:54:52.122Z,36
2017-07-01T06:55:52.726Z,36
2017-07-01T06:56:52.323Z,40
2017-07-01T06:57:52.592Z,44
2017-07-01T06:58:52.530Z,52
2017-07-01T06:59:52.468Z,52
2017-07-01T07:00:52.079Z,60
2017-07-01T07:01:52.351Z,64
2017-07-01T07:02:52.282Z,64
2017-07-01T07:03:52.219Z,64
2017-07-01T07:04:52.158Z,56
2017-07-01T07:05:52.346Z,44
2017-07-01T07:06:52.042Z,44
2017-07-01T07:07:51.976Z,40
2017-07-01T07:08:51.912Z,40
2017-07-01T07:09:51.865Z,40
2017-07-01T07:10:51.935Z,36
2017-07-01T07:11:51.398Z,36
2017-07-01T07:12:51.662Z,40
2017-07-01T07:13:51.281Z,40
2017-07-01T07:14:51.213Z,44
2017-07-01T07:15:51.576Z,48
2017-07-01T07:16:51.417Z,56
2017-07-01T07:17:51.352Z,60
2017-07-01T07:18:51.291Z,60
2017-07-01T07:19:51.231Z,64
2017-07-01T07:20:51.167Z,72
2017-07-01T07:21:51.112Z,72
2017-07-01T07:22:51.049Z,76
2017-07-01T07:23:50.985Z,80
2017-07-01T07:24:50.932Z,72
2017-07-01T07:25:50.867Z,76
2017-07-01T07:26:50.895Z,80
2017-07-01T07:27:50.737Z,88
2017-07-01T07:28:50.671Z,88
2017-07-01T07:29:50.615Z,92
2017-07-01T07:30:50.947Z,92
2017-07-01T07:31:50.486Z,92
2017-07-01T07:32:50.429Z,96
2017-07-01T07:33:50.366Z,124
2017-07-01T07:34:49.971Z,140
2017-07-01T07:35:50.240Z,204
2017-07-01T07:36:50.175Z,176
2017-07-01T07:37:50.111Z,220
2017-07-01T07:38:50.049Z,232
2017-07-01T07:39:49.988Z,148
2017-07-01T07:40:50.277Z,136
2017-07-01T07:41:49.874Z,136
2017-07-01T07:42:49.804Z,136
2017-07-01T07:43:49.746Z,152
2017-07-01T07:44:49.685Z,124
2017-07-01T07:45:49.618Z,116
2017-07-01T07:46:49.555Z,132
2017-07-01T07:47:49.492Z,200
2017-07-01T07:48:49.434Z,228
2017-07-01T07:49:49.406Z,200
2017-07-01T07:50:49.408Z,188
2017-07-01T07:51:49.243Z,180
2017-07-01T07:52:48.859Z,144
2017-07-01T07:53:49.115Z,148
2017-07-01T07:54:49.061Z,200
2017-07-01T07:55:49.255Z,168
2017-07-01T07:56:48.932Z,176
2017-07-01T07:57:48.872Z,196
2017-07-01T07:58:48.810Z,212
2017-07-01T07:59:48.418Z,236
2017-07-01T08:00:48.606Z,228
2017-07-01T08:01:48.296Z,204
2017-07-01T08:02:48.563Z,164
2017-07-01T08:03:48.504Z,132
2017-07-01T08:04:48.439Z,124
2017-07-01T08:05:48.526Z,120
2017-07-01T08:06:48.315Z,120
2017-07-01T08:07:48.253Z,124
2017-07-01T08:08:48.193Z,128
2017-07-01T08:09:47.797Z,124
2017-07-01T08:10:48.165Z,124
2017-07-01T08:11:48.005Z,124
2017-07-01T08:12:47.980Z,120
2017-07-01T08:13:47.883Z,120
2017-07-01T08:14:47.816Z,120
2017-07-01T08:15:48.007Z,120
2017-07-01T08:16:47.693Z,120
2017-07-01T08:17:47.632Z,124
2017-07-01T08:18:47.570Z,120
2017-07-01T08:19:47.541Z,120
2017-07-01T08:20:48.050Z,124
2017-07-01T08:21:47.432Z,120
2017-07-01T08:22:47.005Z,120
2017-07-01T08:23:47.286Z,128
2017-07-01T08:24:47.197Z,132
2017-07-01T08:25:47.220Z,124
2017-07-01T08:26:47.076Z,136
2017-07-01T08:27:47.018Z,144
2017-07-01T08:28:47.153Z,132
2017-07-01T08:29:47.134Z,128
2017-07-01T08:30:47.229Z,128
2017-07-01T08:31:46.438Z,124
2017-07-01T08:32:46.371Z,116
2017-07-01T08:33:46.642Z,112
2017-07-01T08:34:46.577Z,116
2017-07-01T08:35:46.880Z,104
2017-07-01T08:36:46.459Z,96
2017-07-01T08:37:46.394Z,104
2017-07-01T08:38:46.333Z,100
2017-07-01T08:39:46.265Z,100
2017-07-01T08:40:46.458Z,84
2017-07-01T08:41:46.392Z,88
2017-07-01T08:42:45.751Z,108
2017-07-01T08:43:46.021Z,120
2017-07-01T08:44:45.964Z,128
2017-07-01T08:45:46.145Z,136
2017-07-01T08:46:46.254Z,128
2017-07-01T08:47:45.773Z,132
2017-07-01T08:48:45.713Z,132
2017-07-01T08:49:45.648Z,132
2017-07-01T08:50:45.181Z,124
2017-07-01T08:51:45.674Z,116
2017-07-01T08:52:45.138Z,124
2017-07-01T08:53:45.401Z,200
2017-07-01T08:54:45.339Z,184
2017-07-01T08:55:45.526Z,112
2017-07-01T08:56:45.470Z,164
2017-07-01T08:57:45.152Z,148
2017-07-01T08:58:45.094Z,128
2017-07-01T08:59:45.029Z,152
2017-07-01T09:00:45.338Z,164
2017-07-01T09:01:44.915Z,172
2017-07-01T09:02:44.565Z,148
2017-07-01T09:03:44.793Z,120
2017-07-01T09:04:44.402Z,124
2017-07-01T09:05:44.917Z,116
2017-07-01T09:06:44.620Z,116
2017-07-01T09:07:44.539Z,104
2017-07-01T09:08:43.815Z,96
2017-07-01T09:09:44.416Z,88
2017-07-01T09:10:44.880Z,76
2017-07-01T09:11:44.286Z,72
2017-07-01T09:12:43.900Z,72
2017-07-01T09:13:43.831Z,64
2017-07-01T09:14:44.107Z,60
2017-07-01T09:15:44.011Z,48
2017-07-01T09:16:43.978Z,52
2017-07-01T09:17:43.911Z,56
2017-07-01T09:18:43.852Z,68
2017-07-01T09:19:43.463Z,80
2017-07-01T09:20:43.979Z,84
2017-07-01T09:21:43.670Z,80
2017-07-01T09:22:43.608Z,76
2017-07-01T09:23:43.542Z,72
2017-07-01T09:24:43.481Z,68
2017-07-01T09:25:43.773Z,64
2017-07-01T09:26:43.360Z,56
2017-07-01T09:27:43.350Z,56
2017-07-01T09:28:43.234Z,68
2017-07-01T09:29:42.858Z,64
2017-07-01T09:30:43.360Z,60
2017-07-01T09:31:43.049Z,72
2017-07-01T09:32:42.987Z,72
2017-07-01T09:33:42.931Z,76
2017-07-01T09:34:42.864Z,80
2017-07-01T09:35:42.950Z,76
2017-07-01T09:36:42.421Z,72
2017-07-01T09:37:42.691Z,64
2017-07-01T09:38:42.313Z,56
2017-07-01T09:39:42.552Z,60
2017-07-01T09:40:42.656Z,64
2017-07-01T09:41:42.109Z,68
2017-07-01T09:42:42.046Z,80
2017-07-01T09:43:42.305Z,80
2017-07-01T09:44:41.917Z,92
2017-07-01T09:45:42.487Z,100
2017-07-01T09:46:41.764Z,116
2017-07-01T09:47:41.738Z,120
2017-07-01T09:48:41.993Z,128
2017-07-01T09:49:41.982Z,164
2017-07-01T09:50:41.870Z,188
2017-07-01T09:51:41.810Z,156
2017-07-01T09:52:41.751Z,164
2017-07-01T09:53:41.693Z,120
2017-07-01T09:54:41.829Z,76
2017-07-01T09:55:41.561Z,72
2017-07-01T09:56:41.498Z,84
2017-07-01T09:57:41.438Z,96
2017-07-01T09:58:41.375Z,104
2017-07-01T09:59:41.317Z,112
2017-07-01T10:00:41.654Z,112
2017-07-01T10:01:40.862Z,108
2017-07-01T10:02:41.125Z,108
2017-07-01T10:03:40.737Z,120
2017-07-01T10:04:41.006Z,104
2017-07-01T10:05:40.915Z,100
2017-07-01T10:06:40.879Z,80
2017-07-01T10:07:40.822Z,64
2017-07-01T10:08:40.758Z,52
2017-07-01T10:09:40.702Z,44
2017-07-01T10:10:40.454Z,40
2017-07-01T10:11:40.574Z,32
2017-07-01T10:12:40.513Z,32
2017-07-01T10:13:40.470Z,28
2017-07-01T10:14:40.387Z,28
2017-07-01T10:15:40.579Z,28
2017-07-01T10:16:39.932Z,28
2017-07-01T10:17:39.873Z,24
2017-07-01T10:18:40.343Z,28
2017-07-01T10:19:40.085Z,28
2017-07-01T10:20:40.114Z,24
2017-07-01T10:21:40.109Z,32
2017-07-01T10:22:39.899Z,36
2017-07-01T10:23:39.832Z,40
2017-07-01T10:24:39.766Z,44
2017-07-01T10:25:39.533Z,52
2017-07-01T10:26:39.900Z,56
2017-07-01T10:27:39.581Z,64
2017-07-01T10:28:39.514Z,68
2017-07-01T10:29:39.458Z,72
2017-07-01T10:30:39.317Z,76
2017-07-01T10:31:39.886Z,84
2017-07-01T10:32:38.956Z,84
2017-07-01T10:33:38.922Z,92
2017-07-01T10:34:38.823Z,96
2017-07-01T10:35:39.009Z,100
2017-07-01T10:36:39.023Z,92
2017-07-01T10:37:38.961Z,92
2017-07-01T10:38:38.900Z,80
2017-07-01T10:39:38.508Z,56
2017-07-01T10:40:38.698Z,44
2017-07-01T10:41:38.716Z,48
2017-07-01T10:42:38.653Z,48
2017-07-01T10:43:38.596Z,48
2017-07-01T10:44:38.202Z,56
2017-07-01T10:45:38.867Z,52
2017-07-01T10:46:38.407Z,52
2017-07-01T10:47:38.345Z,64
2017-07-01T10:48:38.327Z,68
2017-07-01T10:49:38.218Z,64
2017-07-01T10:50:38.306Z,64
2017-07-01T10:51:38.099Z,68
2017-07-01T10:52:38.036Z,68
2017-07-01T10:53:37.972Z,68
2017-07-01T10:54:37.921Z,68
2017-07-01T10:55:38.002Z,68
2017-07-01T10:56:37.468Z,80
2017-07-01T10:57:37.730Z,84
2017-07-01T10:58:37.664Z,92
2017-07-01T10:59:37.603Z,100
2017-07-01T11:00:37.313Z,104
2017-07-01T11:01:37.480Z,112
2017-07-01T11:02:37.420Z,120
2017-07-01T11:03:37.351Z,128
2017-07-01T11:04:37.290Z,132
2017-07-01T11:05:37.242Z,136
2017-07-01T11:06:36.853Z,140
2017-07-01T11:07:37.113Z,148
2017-07-01T11:08:37.050Z,152
2017-07-01T11:09:36.661Z,152
2017-07-01T11:10:37.178Z,136
2017-07-01T11:11:36.859Z,148
2017-07-01T11:12:36.471Z,156
2017-07-01T11:13:36.737Z,164
2017-07-01T11:14:36.678Z,156
2017-07-01T11:15:36.539Z,156
2017-07-01T11:16:36.549Z,156
2017-07-01T11:17:36.163Z,152
2017-07-01T11:18:36.427Z,148
2017-07-01T11:19:36.038Z,136
2017-07-01T11:20:36.458Z,132
2017-07-01T11:21:36.242Z,128
2017-07-01T11:22:35.851Z,120
2017-07-01T11:23:35.791Z,120
2017-07-01T11:24:36.056Z,112
2017-07-01T11:25:36.297Z,112
2017-07-01T11:26:35.616Z,112
2017-07-01T11:27:35.867Z,112
2017-07-01T11:28:35.809Z,108
2017-07-01T11:29:35.758Z,112
2017-07-01T11:30:35.682Z,116
2017-07-01T11:31:35.316Z,116
2017-07-01T11:32:35.572Z,116
2017-07-01T11:33:35.511Z,120
2017-07-01T11:34:35.128Z,112
2017-07-01T11:35:34.966Z,112
2017-07-01T11:36:35.313Z,116
2017-07-01T11:37:34.930Z,120
2017-07-01T11:38:34.869Z,124
2017-07-01T11:39:35.133Z,124
2017-07-01T11:40:35.499Z,124
2017-07-01T11:41:35.008Z,132
2017-07-01T11:42:34.940Z,132
2017-07-01T11:43:34.883Z,140
2017-07-01T11:44:34.821Z,144
2017-07-01T11:45:34.905Z,156
2017-07-01T11:46:34.697Z,160
2017-07-01T11:47:34.508Z,144
2017-07-01T11:48:34.578Z,128
2017-07-01T11:49:34.515Z,132
2017-07-01T11:50:34.268Z,132
2017-07-01T11:51:34.387Z,124
2017-07-01T11:52:33.997Z,120
2017-07-01T11:53:34.268Z,120
2017-07-01T11:54:34.201Z,120
2017-07-01T11:55:33.812Z,108
2017-07-01T11:56:34.078Z,92
2017-07-01T11:57:34.013Z,80
2017-07-01T11:58:33.961Z,84
2017-07-01T11:59:33.891Z,80
2017-07-01T12:00:34.361Z,80
2017-07-01T12:01:33.782Z,76
2017-07-01T12:02:33.375Z,68
2017-07-01T12:03:33.646Z,56
2017-07-01T12:04:33.603Z,64
2017-07-01T12:05:32.967Z,60
2017-07-01T12:06:33.466Z,52
2017-07-01T12:07:33.398Z,48
2017-07-01T12:08:33.336Z,44
2017-07-01T12:09:32.300Z,44
2017-07-01T12:10:33.383Z,56
2017-07-01T12:11:32.821Z,60
2017-07-01T12:12:33.088Z,64
2017-07-01T12:13:32.696Z,68
2017-07-01T12:14:32.970Z,72
2017-07-01T12:15:33.204Z,68
2017-07-01T12:16:32.840Z,68
2017-07-01T12:17:32.781Z,68
2017-07-01T12:18:32.715Z,64
2017-07-01T12:19:32.655Z,60
2017-07-01T12:20:32.843Z,56
2017-07-01T12:21:31.882Z,60
2017-07-01T12:22:32.470Z,48
2017-07-01T12:23:32.407Z,40
2017-07-01T12:24:32.359Z,36
2017-07-01T12:25:46.809Z,40
2017-07-01T12:26:32.460Z,36
2017-07-01T12:27:32.161Z,40
2017-07-01T12:28:31.774Z,36
2017-07-01T12:29:32.038Z,40
2017-07-01T12:30:32.125Z,52
2017-07-01T12:31:31.741Z,56
2017-07-01T12:32:31.866Z,56
2017-07-01T12:33:31.465Z,52
2017-07-01T12:34:31.729Z,48
2017-07-01T12:35:31.666Z,44
2017-07-01T12:36:32.110Z,48
2017-07-01T12:37:30.890Z,52
2017-07-01T12:38:31.497Z,56
2017-07-01T12:39:31.424Z,68
2017-07-01T12:40:31.509Z,76
2017-07-01T12:41:31.395Z,84
2017-07-01T12:42:31.238Z,88
2017-07-01T12:43:31.186Z,88
2017-07-01T12:44:31.110Z,84
2017-07-01T12:45:31.200Z,84
2017-07-01T12:46:31.505Z,84
2017-07-01T12:47:30.602Z,80
2017-07-01T12:48:30.866Z,76
2017-07-01T12:49:30.802Z,72
2017-07-01T12:50:30.743Z,72
2017-07-01T12:51:30.356Z,68
2017-07-01T12:52:30.294Z,64
2017-07-01T12:53:30.764Z,64
2017-07-01T12:54:30.498Z,68
2017-07-01T12:55:30.354Z,68
2017-07-01T12:56:30.372Z,72
2017-07-01T12:57:30.549Z,72
2017-07-01T12:58:29.916Z,76
2017-07-01T12:59:30.195Z,76
2017-07-01T13:00:30.132Z,76
2017-07-01T13:01:30.067Z,80
2017-07-01T13:02:30.097Z,88
2017-07-01T13:03:29.933Z,92
2017-07-01T13:04:29.546Z,96
2017-07-01T13:05:30.064Z,96
2017-07-01T13:06:29.761Z,96
2017-07-01T13:07:30.042Z,96
2017-07-01T13:08:29.633Z,96
2017-07-01T13:09:29.254Z,96
2017-07-01T13:10:29.506Z,96
2017-07-01T13:11:29.443Z,100
2017-07-01T13:12:29.638Z,100
2017-07-01T13:13:28.998Z,108
2017-07-01T13:14:29.261Z,108
2017-07-01T13:15:29.349Z,116
2017-07-01T13:16:29.133Z,120
2017-07-01T13:17:29.068Z,116
2017-07-01T13:18:29.011Z,112
2017-07-01T13:19:28.947Z,116
2017-07-01T13:20:28.704Z,112
2017-07-01T13:21:28.824Z,112
2017-07-01T13:22:28.685Z,112
2017-07-01T13:23:28.709Z,100
2017-07-01T13:24:28.638Z,96
2017-07-01T13:25:28.828Z,92
2017-07-01T13:26:28.518Z,88
2017-07-01T13:27:28.124Z,84
2017-07-01T13:28:28.688Z,84
2017-07-01T13:29:28.339Z,80
2017-07-01T13:30:28.240Z,80
2017-07-01T13:31:28.206Z,80
2017-07-01T13:32:28.143Z,76
2017-07-01T13:33:28.083Z,72
2017-07-01T13:34:28.021Z,68
2017-07-01T13:35:28.107Z,64
2017-07-01T13:36:27.895Z,68
2017-07-01T13:37:27.189Z,68
2017-07-01T13:38:27.596Z,72
2017-07-01T13:39:27.056Z,68
2017-07-01T13:40:27.479Z,60
2017-07-01T13:41:27.592Z,56
2017-07-01T13:42:28.728Z,48
2017-07-01T13:43:27.567Z,48
2017-07-01T13:44:27.405Z,48
2017-07-01T13:45:27.590Z,48
2017-07-01T13:46:27.282Z,52
2017-07-01T13:47:27.216Z,52
2017-07-01T13:48:27.311Z,56
2017-07-01T13:49:27.107Z,44
2017-07-01T13:50:27.331Z,36
2017-07-01T13:51:26.970Z,28
2017-07-01T13:52:26.906Z,24
2017-07-01T13:53:27.452Z,20
2017-07-01T13:54:27.042Z,20
2017-07-01T13:55:26.554Z,16
2017-07-01T13:56:26.679Z,16
2017-07-01T13:57:26.276Z,16
2017-07-01T13:58:26.551Z,12
2017-07-01T13:59:26.574Z,12
2017-07-01T14:00:26.516Z,16
2017-07-01T14:01:26.352Z,24
2017-07-01T14:02:25.633Z,40
2017-07-01T14:03:25.906Z,48
2017-07-01T14:04:26.190Z,56
2017-07-01T14:05:26.107Z,60
2017-07-01T14:06:26.044Z,68
2017-07-01T14:07:25.980Z,72
2017-07-01T14:08:25.921Z,80
2017-07-01T14:09:25.532Z,80
2017-07-01T14:10:25.621Z,76
2017-07-01T14:11:25.735Z,68
2017-07-01T14:12:25.343Z,68
2017-07-01T14:13:25.610Z,60